sensor_id;sensor_type;location;lat;lon;timestamp;temperature;humidity
14008;DHT22;61651;45.508;12.232;2022-11-11T00:02:28;13.70;99.90
14008;DHT22;61651;45.508;12.232;2022-11-11T00:05:32;13.50;99.90
14008;DHT22;61651;45.508;12.232;2022-11-11T00:08:34;13.60;99.90
14008;DHT22;61651;45.508;12.232;2022-11-11T00:11:36;13.60;99.90
14008;DHT22;61651;45.508;12.232;2022-11-11T00:14:38;13.60;99.90
14008;DHT22;61651;45.508;12.232;2022-11-11T00:17:40;13.60;99.90
14008;DHT22;61651;45.508;12.232;2022-11-11T00:21:01;13.60;99.90
14008;DHT22;61651;45.508;12.232;2022-11-11T00:24:23;13.60;99.90
14008;DHT22;61651;45.508;12.232;2022-11-11T00:27:42;13.60;99.90
14008;DHT22;61651;45.508;12.232;2022-11-11T00:30:45;13.50;99.90
14008;DHT22;61651;45.508;12.232;2022-11-11T00:33:47;13.50;99.90
14008;DHT22;61651;45.508;12.232;2022-11-11T00:36:50;13.50;99.90
14008;DHT22;61651;45.508;12.232;2022-11-11T00:39:51;13.40;99.90
14008;DHT22;61651;45.508;12.232;2022-11-11T00:42:53;13.20;99.90
14008;DHT22;61651;45.508;12.232;2022-11-11T00:45:55;13.20;99.90
14008;DHT22;61651;45.508;12.232;2022-11-11T00:49:17;13.30;99.90
14008;DHT22;61651;45.508;12.232;2022-11-11T00:52:40;13.20;99.90
14008;DHT22;61651;45.508;12.232;2022-11-11T00:55:42;13.10;99.90
14008;DHT22;61651;45.508;12.232;2022-11-11T00:58:44;13.20;99.90
14008;DHT22;61651;45.508;12.232;2022-11-11T01:01:46;13.20;99.90
14008;DHT22;61651;45.508;12.232;2022-11-11T01:04:48;13.20;99.90
14008;DHT22;61651;45.508;12.232;2022-11-11T01:07:51;13.20;99.90
14008;DHT22;61651;45.508;12.232;2022-11-11T01:10:53;13.20;99.90
14008;DHT22;61651;45.508;12.232;2022-11-11T01:13:55;13.20;99.90
14008;DHT22;61651;45.508;12.232;2022-11-11T01:16:57;13.20;99.90
14008;DHT22;61651;45.508;12.232;2022-11-11T01:19:59;13.10;99.90
14008;DHT22;61651;45.508;12.232;2022-11-11T01:23:03;13.10;99.90
14008;DHT22;61651;45.508;12.232;2022-11-11T01:26:06;13.10;99.90
14008;DHT22;61651;45.508;12.232;2022-11-11T01:29:10;13.10;99.90
14008;DHT22;61651;45.508;12.232;2022-11-11T01:32:12;13.20;99.90
14008;DHT22;61651;45.508;12.232;2022-11-11T01:35:14;13.20;99.90
14008;DHT22;61651;45.508;12.232;2022-11-11T01:38:17;13.20;99.90
14008;DHT22;61651;45.508;12.232;2022-11-11T01:41:21;13.30;99.90
14008;DHT22;61651;45.508;12.232;2022-11-11T01:44:47;13.30;99.90
14008;DHT22;61651;45.508;12.232;2022-11-11T01:47:49;13.20;99.90
14008;DHT22;61651;45.508;12.232;2022-11-11T01:51:36;13.20;99.90
14008;DHT22;61651;45.508;12.232;2022-11-11T01:54:44;13.30;99.90
14008;DHT22;61651;45.508;12.232;2022-11-11T01:57:50;13.20;99.90
14008;DHT22;61651;45.508;12.232;2022-11-11T02:00:54;13.20;99.90
14008;DHT22;61651;45.508;12.232;2022-11-11T02:04:00;13.20;99.90
14008;DHT22;61651;45.508;12.232;2022-11-11T02:07:21;13.20;99.90
14008;DHT22;61651;45.508;12.232;2022-11-11T02:10:26;13.20;99.90
14008;DHT22;61651;45.508;12.232;2022-11-11T02:13:29;13.20;99.90
14008;DHT22;61651;45.508;12.232;2022-11-11T02:16:50;13.20;99.90
14008;DHT22;61651;45.508;12.232;2022-11-11T02:19:54;13.20;99.90
14008;DHT22;61651;45.508;12.232;2022-11-11T02:22:59;13.00;99.90
14008;DHT22;61651;45.508;12.232;2022-11-11T02:26:04;12.90;99.90
14008;DHT22;61651;45.508;12.232;2022-11-11T02:29:11;13.00;99.90
14008;DHT22;61651;45.508;12.232;2022-11-11T02:32:14;13.00;99.90
14008;DHT22;61651;45.508;12.232;2022-11-11T02:35:18;13.00;99.90
14008;DHT22;61651;45.508;12.232;2022-11-11T02:38:21;13.10;99.90
14008;DHT22;61651;45.508;12.232;2022-11-11T02:41:25;13.10;99.90
14008;DHT22;61651;45.508;12.232;2022-11-11T02:44:44;13.10;99.90
14008;DHT22;61651;45.508;12.232;2022-11-11T02:47:46;13.00;99.90
14008;DHT22;61651;45.508;12.232;2022-11-11T02:50:49;13.00;99.90
14008;DHT22;61651;45.508;12.232;2022-11-11T02:53:51;13.10;99.90
14008;DHT22;61651;45.508;12.232;2022-11-11T02:56:59;13.00;99.90
14008;DHT22;61651;45.508;12.232;2022-11-11T03:00:11;13.00;99.90
14008;DHT22;61651;45.508;12.232;2022-11-11T03:03:13;13.00;99.90
14008;DHT22;61651;45.508;12.232;2022-11-11T03:06:15;13.00;99.90
14008;DHT22;61651;45.508;12.232;2022-11-11T03:09:17;12.80;99.90
14008;DHT22;61651;45.508;12.232;2022-11-11T03:12:21;12.40;99.90
14008;DHT22;61651;45.508;12.232;2022-11-11T03:15:23;12.30;99.90
14008;DHT22;61651;45.508;12.232;2022-11-11T03:18:25;12.30;99.90
14008;DHT22;61651;45.508;12.232;2022-11-11T03:21:26;12.50;99.90
14008;DHT22;61651;45.508;12.232;2022-11-11T03:24:28;12.60;99.90
14008;DHT22;61651;45.508;12.232;2022-11-11T03:27:51;12.60;99.90
14008;DHT22;61651;45.508;12.232;2022-11-11T03:30:53;12.30;99.90
14008;DHT22;61651;45.508;12.232;2022-11-11T03:33:56;11.90;99.90
14008;DHT22;61651;45.508;12.232;2022-11-11T03:37:17;11.70;99.90
14008;DHT22;61651;45.508;12.232;2022-11-11T03:40:36;11.90;99.90
14008;DHT22;61651;45.508;12.232;2022-11-11T03:43:40;12.10;99.90
14008;DHT22;61651;45.508;12.232;2022-11-11T03:46:42;12.30;99.90
14008;DHT22;61651;45.508;12.232;2022-11-11T03:49:44;12.40;99.90
14008;DHT22;61651;45.508;12.232;2022-11-11T03:52:46;12.40;99.90
14008;DHT22;61651;45.508;12.232;2022-11-11T03:55:49;12.40;99.90
14008;DHT22;61651;45.508;12.232;2022-11-11T03:58:53;12.50;99.90
14008;DHT22;61651;45.508;12.232;2022-11-11T04:01:55;12.30;99.90
14008;DHT22;61651;45.508;12.232;2022-11-11T04:05:14;12.30;99.90
14008;DHT22;61651;45.508;12.232;2022-11-11T04:08:34;12.20;99.90
14008;DHT22;61651;45.508;12.232;2022-11-11T04:11:53;12.30;99.90
14008;DHT22;61651;45.508;12.232;2022-11-11T04:14:56;12.40;99.90
14008;DHT22;61651;45.508;12.232;2022-11-11T04:18:16;12.40;99.90
14008;DHT22;61651;45.508;12.232;2022-11-11T04:21:38;12.40;99.90
14008;DHT22;61651;45.508;12.232;2022-11-11T04:24:44;12.40;99.90
14008;DHT22;61651;45.508;12.232;2022-11-11T04:28:04;12.40;99.90
14008;DHT22;61651;45.508;12.232;2022-11-11T04:31:24;12.50;99.90
14008;DHT22;61651;45.508;12.232;2022-11-11T04:34:26;12.40;99.90
14008;DHT22;61651;45.508;12.232;2022-11-11T04:37:31;12.50;99.90
14008;DHT22;61651;45.508;12.232;2022-11-11T04:40:33;12.50;99.90
14008;DHT22;61651;45.508;12.232;2022-11-11T04:44:04;12.40;99.90
14008;DHT22;61651;45.508;12.232;2022-11-11T04:47:26;12.40;99.90
14008;DHT22;61651;45.508;12.232;2022-11-11T04:50:30;12.40;99.90
14008;DHT22;61651;45.508;12.232;2022-11-11T04:53:32;12.40;99.90
14008;DHT22;61651;45.508;12.232;2022-11-11T04:56:34;12.40;99.90
14008;DHT22;61651;45.508;12.232;2022-11-11T04:59:49;12.50;99.90
14008;DHT22;61651;45.508;12.232;2022-11-11T05:02:54;12.40;99.90
14008;DHT22;61651;45.508;12.232;2022-11-11T05:06:14;12.40;99.90
14008;DHT22;61651;45.508;12.232;2022-11-11T05:09:33;12.20;99.90
14008;DHT22;61651;45.508;12.232;2022-11-11T05:12:35;12.20;99.90
14008;DHT22;61651;45.508;12.232;2022-11-11T05:15:37;12.20;99.90
14008;DHT22;61651;45.508;12.232;2022-11-11T05:18:58;12.20;99.90
14008;DHT22;61651;45.508;12.232;2022-11-11T05:22:21;12.30;99.90
14008;DHT22;61651;45.508;12.232;2022-11-11T05:25:23;12.20;99.90
14008;DHT22;61651;45.508;12.232;2022-11-11T05:28:24;11.90;99.90
14008;DHT22;61651;45.508;12.232;2022-11-11T05:31:27;12.00;99.90
14008;DHT22;61651;45.508;12.232;2022-11-11T05:34:30;12.00;99.90
14008;DHT22;61651;45.508;12.232;2022-11-11T05:37:32;12.10;99.90
14008;DHT22;61651;45.508;12.232;2022-11-11T05:40:34;12.10;99.90
14008;DHT22;61651;45.508;12.232;2022-11-11T05:43:36;12.10;99.90
14008;DHT22;61651;45.508;12.232;2022-11-11T05:46:38;12.00;99.90
14008;DHT22;61651;45.508;12.232;2022-11-11T05:49:42;12.00;99.90
14008;DHT22;61651;45.508;12.232;2022-11-11T05:52:47;12.00;99.90
14008;DHT22;61651;45.508;12.232;2022-11-11T05:55:49;12.10;99.90
14008;DHT22;61651;45.508;12.232;2022-11-11T05:58:51;12.20;99.90
14008;DHT22;61651;45.508;12.232;2022-11-11T06:01:54;12.20;99.90
14008;DHT22;61651;45.508;12.232;2022-11-11T06:04:57;12.00;99.90
14008;DHT22;61651;45.508;12.232;2022-11-11T06:07:59;12.10;99.90
14008;DHT22;61651;45.508;12.232;2022-11-11T06:11:01;12.10;99.90
14008;DHT22;61651;45.508;12.232;2022-11-11T06:14:04;12.20;99.90
14008;DHT22;61651;45.508;12.232;2022-11-11T06:17:06;12.20;99.90
14008;DHT22;61651;45.508;12.232;2022-11-11T06:20:10;12.30;99.90
14008;DHT22;61651;45.508;12.232;2022-11-11T06:23:12;12.30;99.90
14008;DHT22;61651;45.508;12.232;2022-11-11T06:26:14;12.30;99.90
14008;DHT22;61651;45.508;12.232;2022-11-11T06:29:16;12.30;99.90
14008;DHT22;61651;45.508;12.232;2022-11-11T06:32:18;12.40;99.90
14008;DHT22;61651;45.508;12.232;2022-11-11T06:35:21;12.40;99.90
14008;DHT22;61651;45.508;12.232;2022-11-11T06:38:23;12.40;99.90
14008;DHT22;61651;45.508;12.232;2022-11-11T06:41:25;12.30;99.90
14008;DHT22;61651;45.508;12.232;2022-11-11T06:44:27;12.40;99.90
14008;DHT22;61651;45.508;12.232;2022-11-11T06:47:29;12.40;99.90
14008;DHT22;61651;45.508;12.232;2022-11-11T06:50:33;12.40;99.90
14008;DHT22;61651;45.508;12.232;2022-11-11T06:53:35;12.40;99.90
14008;DHT22;61651;45.508;12.232;2022-11-11T06:56:37;12.50;99.90
14008;DHT22;61651;45.508;12.232;2022-11-11T06:59:39;12.50;99.90
14008;DHT22;61651;45.508;12.232;2022-11-11T07:02:41;12.60;99.90
14008;DHT22;61651;45.508;12.232;2022-11-11T07:05:45;12.70;99.90
14008;DHT22;61651;45.508;12.232;2022-11-11T07:08:47;12.70;99.90
14008;DHT22;61651;45.508;12.232;2022-11-11T07:11:49;12.80;99.90
14008;DHT22;61651;45.508;12.232;2022-11-11T07:14:51;12.90;99.90
14008;DHT22;61651;45.508;12.232;2022-11-11T07:17:53;12.80;99.90
14008;DHT22;61651;45.508;12.232;2022-11-11T07:20:56;12.90;99.90
14008;DHT22;61651;45.508;12.232;2022-11-11T07:23:58;12.90;99.90
14008;DHT22;61651;45.508;12.232;2022-11-11T07:27:00;13.00;99.90
14008;DHT22;61651;45.508;12.232;2022-11-11T07:30:17;13.00;99.90
14008;DHT22;61651;45.508;12.232;2022-11-11T07:33:20;13.10;99.90
14008;DHT22;61651;45.508;12.232;2022-11-11T07:36:24;13.30;99.90
14008;DHT22;61651;45.508;12.232;2022-11-11T07:39:26;13.30;99.90
14008;DHT22;61651;45.508;12.232;2022-11-11T07:42:28;13.40;99.90
14008;DHT22;61651;45.508;12.232;2022-11-11T07:45:30;13.50;99.90
14008;DHT22;61651;45.508;12.232;2022-11-11T07:48:32;13.60;99.90
14008;DHT22;61651;45.508;12.232;2022-11-11T07:51:36;13.70;99.90
14008;DHT22;61651;45.508;12.232;2022-11-11T07:54:38;13.70;99.90
14008;DHT22;61651;45.508;12.232;2022-11-11T07:57:40;13.80;99.90
14008;DHT22;61651;45.508;12.232;2022-11-11T08:00:42;13.90;99.90
14008;DHT22;61651;45.508;12.232;2022-11-11T08:03:44;13.90;99.90
14008;DHT22;61651;45.508;12.232;2022-11-11T08:06:51;14.00;99.90
14008;DHT22;61651;45.508;12.232;2022-11-11T08:09:53;14.10;99.90
14008;DHT22;61651;45.508;12.232;2022-11-11T08:12:55;14.30;99.90
14008;DHT22;61651;45.508;12.232;2022-11-11T08:16:15;14.30;99.90
14008;DHT22;61651;45.508;12.232;2022-11-11T08:19:17;14.40;99.90
14008;DHT22;61651;45.508;12.232;2022-11-11T08:22:20;14.50;99.90
14008;DHT22;61651;45.508;12.232;2022-11-11T08:25:22;14.60;99.90
14008;DHT22;61651;45.508;12.232;2022-11-11T08:28:25;14.70;99.90
14008;DHT22;61651;45.508;12.232;2022-11-11T08:31:27;14.70;99.90
14008;DHT22;61651;45.508;12.232;2022-11-11T08:34:29;14.80;99.90
14008;DHT22;61651;45.508;12.232;2022-11-11T08:37:32;14.90;99.90
14008;DHT22;61651;45.508;12.232;2022-11-11T08:40:34;14.90;99.90
14008;DHT22;61651;45.508;12.232;2022-11-11T08:43:36;15.00;99.90
14008;DHT22;61651;45.508;12.232;2022-11-11T08:46:38;15.00;99.90
14008;DHT22;61651;45.508;12.232;2022-11-11T08:49:40;15.00;99.90
14008;DHT22;61651;45.508;12.232;2022-11-11T08:52:47;15.10;99.90
14008;DHT22;61651;45.508;12.232;2022-11-11T08:55:49;15.10;99.90
14008;DHT22;61651;45.508;12.232;2022-11-11T08:58:51;15.20;99.90
14008;DHT22;61651;45.508;12.232;2022-11-11T09:01:53;15.20;99.90
14008;DHT22;61651;45.508;12.232;2022-11-11T09:04:55;15.30;99.90
14008;DHT22;61651;45.508;12.232;2022-11-11T09:08:01;15.30;99.90
14008;DHT22;61651;45.508;12.232;2022-11-11T09:11:05;15.40;99.90
14008;DHT22;61651;45.508;12.232;2022-11-11T09:14:07;15.40;99.90
14008;DHT22;61651;45.508;12.232;2022-11-11T09:17:09;15.50;99.90
14008;DHT22;61651;45.508;12.232;2022-11-11T09:20:11;15.50;99.90
14008;DHT22;61651;45.508;12.232;2022-11-11T09:23:14;15.60;99.90
14008;DHT22;61651;45.508;12.232;2022-11-11T09:26:17;15.70;99.90
14008;DHT22;61651;45.508;12.232;2022-11-11T09:29:23;15.70;99.90
14008;DHT22;61651;45.508;12.232;2022-11-11T09:32:26;15.80;99.90
14008;DHT22;61651;45.508;12.232;2022-11-11T09:35:28;15.90;99.90
14008;DHT22;61651;45.508;12.232;2022-11-11T09:38:32;16.10;99.90
14008;DHT22;61651;45.508;12.232;2022-11-11T09:45:32;16.20;99.90
14008;DHT22;61651;45.508;12.232;2022-11-11T09:56:22;16.60;99.90
14008;DHT22;61651;45.508;12.232;2022-11-11T09:59:28;16.70;99.90
14008;DHT22;61651;45.508;12.232;2022-11-11T10:02:37;16.70;99.90
14008;DHT22;61651;45.508;12.232;2022-11-11T10:05:43;16.80;99.90
14008;DHT22;61651;45.508;12.232;2022-11-11T10:08:53;16.90;99.90
14008;DHT22;61651;45.508;12.232;2022-11-11T10:12:08;17.00;99.90
14008;DHT22;61651;45.508;12.232;2022-11-11T10:15:12;17.10;99.90
14008;DHT22;61651;45.508;12.232;2022-11-11T10:18:26;17.10;99.90
14008;DHT22;61651;45.508;12.232;2022-11-11T10:21:35;17.20;99.90
14008;DHT22;61651;45.508;12.232;2022-11-11T10:24:40;17.20;99.90
14008;DHT22;61651;45.508;12.232;2022-11-11T10:27:45;17.30;99.90
14008;DHT22;61651;45.508;12.232;2022-11-11T10:30:49;17.40;99.90
14008;DHT22;61651;45.508;12.232;2022-11-11T10:33:54;17.40;99.90
14008;DHT22;61651;45.508;12.232;2022-11-11T10:36:58;17.60;99.90
14008;DHT22;61651;45.508;12.232;2022-11-11T10:40:06;17.50;99.90
14008;DHT22;61651;45.508;12.232;2022-11-11T10:43:20;17.60;99.90
14008;DHT22;61651;45.508;12.232;2022-11-11T10:46:26;17.70;99.90
14008;DHT22;61651;45.508;12.232;2022-11-11T10:49:32;17.80;99.90
14008;DHT22;61651;45.508;12.232;2022-11-11T10:52:39;17.90;99.90
14008;DHT22;61651;45.508;12.232;2022-11-11T10:55:45;17.90;99.90
14008;DHT22;61651;45.508;12.232;2022-11-11T10:58:55;18.10;99.90
14008;DHT22;61651;45.508;12.232;2022-11-11T11:02:05;18.20;99.90
14008;DHT22;61651;45.508;12.232;2022-11-11T11:05:13;18.30;99.90
14008;DHT22;61651;45.508;12.232;2022-11-11T11:08:21;18.40;99.90
14008;DHT22;61651;45.508;12.232;2022-11-11T11:11:29;18.40;99.90
14008;DHT22;61651;45.508;12.232;2022-11-11T11:14:36;18.50;99.90
14008;DHT22;61651;45.508;12.232;2022-11-11T11:17:47;18.50;99.90
14008;DHT22;61651;45.508;12.232;2022-11-11T11:20:56;18.60;99.90
14008;DHT22;61651;45.508;12.232;2022-11-11T11:23:58;18.60;99.90
14008;DHT22;61651;45.508;12.232;2022-11-11T11:27:02;18.70;99.90
14008;DHT22;61651;45.508;12.232;2022-11-11T11:30:11;18.70;99.90
14008;DHT22;61651;45.508;12.232;2022-11-11T11:33:14;18.80;99.90
14008;DHT22;61651;45.508;12.232;2022-11-11T11:36:17;18.80;99.90
14008;DHT22;61651;45.508;12.232;2022-11-11T11:39:31;18.90;99.90
14008;DHT22;61651;45.508;12.232;2022-11-11T11:42:34;19.00;99.90
14008;DHT22;61651;45.508;12.232;2022-11-11T11:45:38;19.00;99.90
14008;DHT22;61651;45.508;12.232;2022-11-11T11:49:05;19.00;99.90
14008;DHT22;61651;45.508;12.232;2022-11-11T11:52:17;18.90;99.90
14008;DHT22;61651;45.508;12.232;2022-11-11T11:55:24;18.90;99.90
14008;DHT22;61651;45.508;12.232;2022-11-11T11:58:39;19.00;99.90
14008;DHT22;61651;45.508;12.232;2022-11-11T12:01:51;19.10;99.90
14008;DHT22;61651;45.508;12.232;2022-11-11T12:05:09;19.20;99.90
14008;DHT22;61651;45.508;12.232;2022-11-11T12:08:31;19.30;99.90
14008;DHT22;61651;45.508;12.232;2022-11-11T12:11:42;19.40;99.90
14008;DHT22;61651;45.508;12.232;2022-11-11T12:15:01;19.50;99.90
14008;DHT22;61651;45.508;12.232;2022-11-11T12:18:21;19.70;99.90
14008;DHT22;61651;45.508;12.232;2022-11-11T12:21:32;19.80;99.90
14008;DHT22;61651;45.508;12.232;2022-11-11T12:24:47;20.00;99.90
14008;DHT22;61651;45.508;12.232;2022-11-11T12:28:01;20.00;99.90
14008;DHT22;61651;45.508;12.232;2022-11-11T12:31:14;20.10;99.90
14008;DHT22;61651;45.508;12.232;2022-11-11T12:34:32;20.20;99.90
14008;DHT22;61651;45.508;12.232;2022-11-11T12:37:42;20.30;99.90
14008;DHT22;61651;45.508;12.232;2022-11-11T12:40:56;20.40;99.90
14008;DHT22;61651;45.508;12.232;2022-11-11T12:44:08;20.60;99.90
14008;DHT22;61651;45.508;12.232;2022-11-11T12:47:26;20.80;99.90
14008;DHT22;61651;45.508;12.232;2022-11-11T12:50:36;21.00;99.90
14008;DHT22;61651;45.508;12.232;2022-11-11T12:53:46;21.10;99.90
14008;DHT22;61651;45.508;12.232;2022-11-11T12:56:54;21.20;99.90
14008;DHT22;61651;45.508;12.232;2022-11-11T13:00:07;21.40;99.90
14008;DHT22;61651;45.508;12.232;2022-11-11T13:03:24;21.60;99.90
14008;DHT22;61651;45.508;12.232;2022-11-11T13:06:47;21.70;99.90
14008;DHT22;61651;45.508;12.232;2022-11-11T13:10:05;21.80;99.90
14008;DHT22;61651;45.508;12.232;2022-11-11T13:13:34;21.90;99.90
14008;DHT22;61651;45.508;12.232;2022-11-11T13:16:41;22.00;99.90
14008;DHT22;61651;45.508;12.232;2022-11-11T13:19:45;22.20;99.90
14008;DHT22;61651;45.508;12.232;2022-11-11T13:22:52;22.40;99.90
14008;DHT22;61651;45.508;12.232;2022-11-11T13:25:57;22.50;99.90
14008;DHT22;61651;45.508;12.232;2022-11-11T13:29:31;22.70;99.90
14008;DHT22;61651;45.508;12.232;2022-11-11T13:32:39;22.90;99.90
14008;DHT22;61651;45.508;12.232;2022-11-11T13:35:44;22.90;99.90
14008;DHT22;61651;45.508;12.232;2022-11-11T13:38:51;23.00;99.90
14008;DHT22;61651;45.508;12.232;2022-11-11T13:41:55;22.90;99.90
14008;DHT22;61651;45.508;12.232;2022-11-11T13:44:59;22.90;99.90
14008;DHT22;61651;45.508;12.232;2022-11-11T13:48:02;22.90;99.90
14008;DHT22;61651;45.508;12.232;2022-11-11T13:51:19;22.70;99.90
14008;DHT22;61651;45.508;12.232;2022-11-11T13:54:26;22.60;99.90
14008;DHT22;61651;45.508;12.232;2022-11-11T13:57:31;22.40;99.90
14008;DHT22;61651;45.508;12.232;2022-11-11T14:00:37;22.20;99.90
14008;DHT22;61651;45.508;12.232;2022-11-11T14:03:57;22.10;99.90
14008;DHT22;61651;45.508;12.232;2022-11-11T14:07:00;22.00;99.90
14008;DHT22;61651;45.508;12.232;2022-11-11T14:10:06;21.90;99.90
14008;DHT22;61651;45.508;12.232;2022-11-11T14:13:36;21.80;99.90
14008;DHT22;61651;45.508;12.232;2022-11-11T14:17:11;21.70;99.90
14008;DHT22;61651;45.508;12.232;2022-11-11T14:20:37;21.60;99.90
14008;DHT22;61651;45.508;12.232;2022-11-11T14:23:41;21.50;99.90
14008;DHT22;61651;45.508;12.232;2022-11-11T14:26:56;21.40;99.90
14008;DHT22;61651;45.508;12.232;2022-11-11T14:29:59;21.30;99.90
14008;DHT22;61651;45.508;12.232;2022-11-11T14:33:09;21.20;99.90
14008;DHT22;61651;45.508;12.232;2022-11-11T14:36:20;21.10;99.90
14008;DHT22;61651;45.508;12.232;2022-11-11T14:39:36;21.00;99.90
14008;DHT22;61651;45.508;12.232;2022-11-11T14:42:45;20.90;99.90
14008;DHT22;61651;45.508;12.232;2022-11-11T14:45:51;20.70;99.90
14008;DHT22;61651;45.508;12.232;2022-11-11T14:48:59;20.60;99.90
14008;DHT22;61651;45.508;12.232;2022-11-11T14:52:02;20.50;99.90
14008;DHT22;61651;45.508;12.232;2022-11-11T14:55:16;20.30;99.90
14008;DHT22;61651;45.508;12.232;2022-11-11T14:58:24;20.20;99.90
14008;DHT22;61651;45.508;12.232;2022-11-11T15:01:27;20.10;99.90
14008;DHT22;61651;45.508;12.232;2022-11-11T15:04:39;19.90;99.90
14008;DHT22;61651;45.508;12.232;2022-11-11T15:07:58;19.80;99.90
14008;DHT22;61651;45.508;12.232;2022-11-11T15:11:14;19.70;99.90
14008;DHT22;61651;45.508;12.232;2022-11-11T15:14:32;19.60;99.90
14008;DHT22;61651;45.508;12.232;2022-11-11T15:17:44;19.40;99.90
14008;DHT22;61651;45.508;12.232;2022-11-11T15:21:03;19.30;99.90
14008;DHT22;61651;45.508;12.232;2022-11-11T15:24:19;19.20;99.90
14008;DHT22;61651;45.508;12.232;2022-11-11T15:27:32;19.00;99.90
14008;DHT22;61651;45.508;12.232;2022-11-11T15:30:52;18.90;99.90
14008;DHT22;61651;45.508;12.232;2022-11-11T15:34:04;18.80;99.90
14008;DHT22;61651;45.508;12.232;2022-11-11T15:37:11;18.70;99.90
14008;DHT22;61651;45.508;12.232;2022-11-11T15:40:18;18.60;99.90
14008;DHT22;61651;45.508;12.232;2022-11-11T15:43:22;18.50;99.90
14008;DHT22;61651;45.508;12.232;2022-11-11T15:46:28;18.40;99.90
14008;DHT22;61651;45.508;12.232;2022-11-11T15:49:41;18.40;99.90
14008;DHT22;61651;45.508;12.232;2022-11-11T15:52:44;18.20;99.90
14008;DHT22;61651;45.508;12.232;2022-11-11T15:55:51;18.20;99.90
14008;DHT22;61651;45.508;12.232;2022-11-11T15:58:53;18.00;99.90
14008;DHT22;61651;45.508;12.232;2022-11-11T16:01:58;18.00;99.90
14008;DHT22;61651;45.508;12.232;2022-11-11T16:05:02;17.80;99.90
14008;DHT22;61651;45.508;12.232;2022-11-11T16:08:07;17.70;99.90
14008;DHT22;61651;45.508;12.232;2022-11-11T16:11:13;17.60;99.90
14008;DHT22;61651;45.508;12.232;2022-11-11T16:14:29;17.50;99.90
14008;DHT22;61651;45.508;12.232;2022-11-11T16:17:36;17.50;99.90
14008;DHT22;61651;45.508;12.232;2022-11-11T16:20:41;17.40;99.90
14008;DHT22;61651;45.508;12.232;2022-11-11T16:23:46;17.30;99.90
14008;DHT22;61651;45.508;12.232;2022-11-11T16:26:48;17.30;99.90
14008;DHT22;61651;45.508;12.232;2022-11-11T16:29:50;17.30;99.90
14008;DHT22;61651;45.508;12.232;2022-11-11T16:32:54;17.20;99.90
14008;DHT22;61651;45.508;12.232;2022-11-11T16:36:06;17.10;99.90
14008;DHT22;61651;45.508;12.232;2022-11-11T16:39:13;17.00;99.90
14008;DHT22;61651;45.508;12.232;2022-11-11T16:42:17;17.00;99.90
14008;DHT22;61651;45.508;12.232;2022-11-11T16:45:21;16.90;99.90
14008;DHT22;61651;45.508;12.232;2022-11-11T16:48:44;16.90;99.90
14008;DHT22;61651;45.508;12.232;2022-11-11T16:52:21;16.80;99.90
14008;DHT22;61651;45.508;12.232;2022-11-11T16:55:50;16.80;99.90
14008;DHT22;61651;45.508;12.232;2022-11-11T16:59:06;16.70;99.90
14008;DHT22;61651;45.508;12.232;2022-11-11T17:02:28;16.60;99.90
14008;DHT22;61651;45.508;12.232;2022-11-11T17:05:47;16.60;99.90
14008;DHT22;61651;45.508;12.232;2022-11-11T17:08:49;16.50;99.90
14008;DHT22;61651;45.508;12.232;2022-11-11T17:11:52;16.40;99.90
14008;DHT22;61651;45.508;12.232;2022-11-11T17:14:53;16.30;99.90
14008;DHT22;61651;45.508;12.232;2022-11-11T17:17:55;16.20;99.90
14008;DHT22;61651;45.508;12.232;2022-11-11T17:20:59;16.20;99.90
14008;DHT22;61651;45.508;12.232;2022-11-11T17:24:02;16.10;99.90
14008;DHT22;61651;45.508;12.232;2022-11-11T17:27:04;16.10;99.90
14008;DHT22;61651;45.508;12.232;2022-11-11T17:30:12;16.10;99.90
14008;DHT22;61651;45.508;12.232;2022-11-11T17:33:33;16.00;99.90
14008;DHT22;61651;45.508;12.232;2022-11-11T17:36:37;16.00;99.90
14008;DHT22;61651;45.508;12.232;2022-11-11T17:39:39;15.90;99.90
14008;DHT22;61651;45.508;12.232;2022-11-11T17:42:42;15.80;99.90
14008;DHT22;61651;45.508;12.232;2022-11-11T17:45:44;15.80;99.90
14008;DHT22;61651;45.508;12.232;2022-11-11T17:48:47;15.80;99.90
14008;DHT22;61651;45.508;12.232;2022-11-11T17:51:50;15.70;99.90
14008;DHT22;61651;45.508;12.232;2022-11-11T17:54:52;15.70;99.90
14008;DHT22;61651;45.508;12.232;2022-11-11T17:57:54;15.60;99.90
14008;DHT22;61651;45.508;12.232;2022-11-11T18:01:04;15.60;99.90
14008;DHT22;61651;45.508;12.232;2022-11-11T18:04:06;15.50;99.90
14008;DHT22;61651;45.508;12.232;2022-11-11T18:07:10;15.50;99.90
14008;DHT22;61651;45.508;12.232;2022-11-11T18:10:12;15.40;99.90
14008;DHT22;61651;45.508;12.232;2022-11-11T18:13:14;15.40;99.90
14008;DHT22;61651;45.508;12.232;2022-11-11T18:16:17;15.40;99.90
14008;DHT22;61651;45.508;12.232;2022-11-11T18:19:19;15.30;99.90
14008;DHT22;61651;45.508;12.232;2022-11-11T18:22:22;15.40;99.90
14008;DHT22;61651;45.508;12.232;2022-11-11T18:25:24;15.30;99.90
14008;DHT22;61651;45.508;12.232;2022-11-11T18:28:30;15.30;99.90
14008;DHT22;61651;45.508;12.232;2022-11-11T18:31:32;15.30;99.90
14008;DHT22;61651;45.508;12.232;2022-11-11T18:34:34;15.20;99.90
14008;DHT22;61651;45.508;12.232;2022-11-11T18:37:38;15.20;99.90
14008;DHT22;61651;45.508;12.232;2022-11-11T18:40:40;15.10;99.90
14008;DHT22;61651;45.508;12.232;2022-11-11T18:43:44;15.10;99.90
14008;DHT22;61651;45.508;12.232;2022-11-11T18:46:47;15.10;99.90
14008;DHT22;61651;45.508;12.232;2022-11-11T18:49:49;15.00;99.90
14008;DHT22;61651;45.508;12.232;2022-11-11T18:52:52;15.00;99.90
14008;DHT22;61651;45.508;12.232;2022-11-11T18:55:54;15.00;99.90
14008;DHT22;61651;45.508;12.232;2022-11-11T18:58:57;14.90;99.90
14008;DHT22;61651;45.508;12.232;2022-11-11T19:01:59;14.90;99.90
14008;DHT22;61651;45.508;12.232;2022-11-11T19:05:01;14.90;99.90
14008;DHT22;61651;45.508;12.232;2022-11-11T19:08:05;14.80;99.90
14008;DHT22;61651;45.508;12.232;2022-11-11T19:11:08;14.80;99.90
14008;DHT22;61651;45.508;12.232;2022-11-11T19:14:11;14.70;99.90
14008;DHT22;61651;45.508;12.232;2022-11-11T19:17:14;14.70;99.90
14008;DHT22;61651;45.508;12.232;2022-11-11T19:20:16;14.70;99.90
14008;DHT22;61651;45.508;12.232;2022-11-11T19:23:19;14.60;99.90
14008;DHT22;61651;45.508;12.232;2022-11-11T19:26:24;14.60;99.90
14008;DHT22;61651;45.508;12.232;2022-11-11T19:29:26;14.60;99.90
14008;DHT22;61651;45.508;12.232;2022-11-11T19:32:28;14.50;99.90
14008;DHT22;61651;45.508;12.232;2022-11-11T19:35:30;14.40;99.90